Time;durP1;ratioP1;P1;durP2;ratioP2;P2;SDS_P1;SDS_P2;PMS_P1;PMS_P2;Temp;Humidity;BMP_temperature;BMP_pressure;BME280_temperature;BME280_humidity;BME280_pressure;Samples;Min_cycle;Max_cycle;Signal;HPM_P1;HPM_P2
2021/11/19 00:00:25;;;;;;;;;;;;;;;20.40;52.49;102803.25;7285830;19;151831;-50
2021/11/19 00:02:52;;;;;;;;;;;;;;;20.42;52.20;102792.63;7289470;19;153720;-50
2021/11/19 00:05:19;;;;;;;;;;;;;;;20.44;52.16;102801.66;7285671;19;151760;-50
2021/11/19 00:07:46;;;;;;;;;;;;;;;20.36;52.70;102790.84;7285348;19;152592;-50
2021/11/19 00:10:14;;;;;;;;;;;;;;;20.31;52.51;102794.44;7283843;19;153297;-49
2021/11/19 00:12:41;;;;;;;;;;;;;;;20.35;52.78;102794.81;7284874;19;151856;-49
2021/11/19 00:15:09;;;;;;;;;;;;;;;20.33;52.46;102797.00;7285650;19;153703;-49
2021/11/19 00:17:36;;;;;;;;;;;;;;;20.29;52.89;102793.84;7282488;19;154018;-51
2021/11/19 00:20:08;;;;;;;;;;;;;;;20.26;52.88;102799.16;7285713;19;151691;-50
2021/11/19 00:22:38;;;;;;;;;;;;;;;20.30;52.50;102797.53;7285075;19;153110;-49
2021/11/19 00:25:08;;;;;;;;;;;;;;;20.25;52.91;102792.69;7291932;19;154141;-49
2021/11/19 00:27:37;;;;;;;;;;;;;;;20.26;52.52;102790.72;7283691;19;152681;-49
2021/11/19 00:30:09;;;;;;;;;;;;;;;20.29;52.46;102795.81;7280627;19;152835;-49
2021/11/19 00:32:37;;;;;;;;;;;;;;;20.23;52.99;102794.88;7282906;19;151670;-49
2021/11/19 00:35:04;;;;;;;;;;;;;;;20.23;53.16;102794.88;7285055;19;153297;-50
2021/11/19 00:37:34;;;;;;;;;;;;;;;20.23;52.68;102797.69;7283821;19;154288;-50
2021/11/19 00:40:02;;;;;;;;;;;;;;;20.23;52.79;102796.84;7285248;19;152035;-49
2021/11/19 00:42:29;;;;;;;;;;;;;;;20.21;53.01;102797.13;7283444;19;151891;-49
2021/11/19 00:44:58;;;;;;;;;;;;;;;20.13;53.43;102791.09;7282002;19;153699;-48
2021/11/19 00:47:24;;;;;;;;;;;;;;;20.15;53.68;102791.69;7291055;19;151826;-50
2021/11/19 00:49:52;;;;;;;;;;;;;;;20.11;53.56;102791.38;7279501;19;153972;-50
2021/11/19 00:52:20;;;;;;;;;;;;;;;20.12;53.47;102789.41;7284553;19;151783;-48
2021/11/19 00:54:47;;;;;;;;;;;;;;;20.11;53.62;102798.94;7286235;19;153174;-49
2021/11/19 00:57:16;;;;;;;;;;;;;;;20.09;53.15;102793.56;7285975;19;153877;-49
2021/11/19 00:59:46;;;;;;;;;;;;;;;20.10;53.66;102792.47;7286535;19;152147;-50
2021/11/19 01:02:14;;;;;;;;;;;;;;;20.12;53.23;102795.03;7284128;19;153281;-50
2021/11/19 01:04:45;;;;;;;;;;;;;;;20.10;53.29;102802.84;7285697;19;153947;-49
2021/11/19 01:07:14;;;;;;;;;;;;;;;20.05;53.86;102803.63;7286348;19;151555;-50
2021/11/19 01:09:45;;;;;;;;;;;;;;;20.05;53.47;102797.16;7291225;19;152746;-49
2021/11/19 01:12:14;;;;;;;;;;;;;;;20.05;53.91;102797.16;7282795;19;152774;-49
2021/11/19 01:14:46;;;;;;;;;;;;;;;20.03;53.95;102802.22;7286046;19;153352;-50
2021/11/19 01:17:17;;;;;;;;;;;;;;;20.06;53.85;102796.91;7284279;19;152341;-49
2021/11/19 01:19:56;;;;;;;;;;;;;;;20.04;53.54;102796.31;7285772;19;151967;-49
2021/11/19 01:22:25;;;;;;;;;;;;;;;20.02;53.64;102797.69;7283535;19;153523;-48
2021/11/19 01:24:52;;;;;;;;;;;;;;;20.03;53.63;102799.41;7284425;19;154066;-49
2021/11/19 01:27:20;;;;;;;;;;;;;;;20.01;53.73;102793.19;7285891;19;151745;-49
2021/11/19 01:29:49;;;;;;;;;;;;;;;19.97;53.89;102792.88;7284538;19;152624;-50
2021/11/19 01:32:19;;;;;;;;;;;;;;;19.94;54.46;102788.59;7292259;19;151688;-48
2021/11/19 01:34:46;;;;;;;;;;;;;;;19.92;54.68;102795.59;7285989;19;152555;-49
2021/11/19 01:37:13;;;;;;;;;;;;;;;19.89;54.62;102796.97;7284830;19;154121;-49
2021/11/19 01:39:45;;;;;;;;;;;;;;;19.87;54.81;102799.19;7285833;19;151578;-49
2021/11/19 01:42:24;;;;;;;;;;;;;;;19.86;54.69;102794.66;7286041;19;152519;-50
2021/11/19 01:44:56;;;;;;;;;;;;;;;19.87;54.59;102799.19;7284566;19;153907;-49
2021/11/19 01:47:23;;;;;;;;;;;;;;;19.87;55.07;102789.91;7284903;19;152209;-49
2021/11/19 01:49:50;;;;;;;;;;;;;;;19.85;54.99;102792.97;7283711;19;152421;-49
2021/11/19 01:52:20;;;;;;;;;;;;;;;19.84;55.18;102796.03;7290763;19;152310;-49
2021/11/19 01:54:52;;;;;;;;;;;;;;;19.81;55.31;102800.19;7285126;19;153177;-49
2021/11/19 01:57:30;;;;;;;;;;;;;;;19.81;55.44;102803.00;7284464;19;153277;-48
2021/11/19 01:59:57;;;;;;;;;;;;;;;19.77;55.17;102804.63;7285155;19;151748;-49
2021/11/19 02:02:31;;;;;;;;;;;;;;;19.79;55.54;102802.44;7280184;19;153957;-49
2021/11/19 02:05:00;;;;;;;;;;;;;;;19.77;55.53;102795.38;7282128;19;153296;-49
2021/11/19 02:07:29;;;;;;;;;;;;;;;19.77;55.56;102799.03;7284604;19;151775;-49
2021/11/19 02:10:07;;;;;;;;;;;;;;;19.77;55.37;102796.22;7281514;19;153109;-49
2021/11/19 02:12:52;;;;;;;;;;;;;;;19.78;55.61;102797.94;7283118;19;153126;-50
2021/11/19 02:15:23;;;;;;;;;;;;;;;19.77;55.47;102784.16;7291413;19;151702;-49
2021/11/19 02:17:51;;;;;;;;;;;;;;;19.74;55.65;102787.47;7282491;19;152935;-49
2021/11/19 02:20:20;;;;;;;;;;;;;;;19.73;55.92;102788.59;7284642;19;151825;-49
2021/11/19 02:22:55;;;;;;;;;;;;;;;19.75;56.05;102789.19;7284081;19;153644;-49
2021/11/19 02:25:31;;;;;;;;;;;;;;;19.74;55.85;102787.47;7283235;19;152089;-49
2021/11/19 02:28:00;;;;;;;;;;;;;;;19.72;55.83;102789.69;7283560;19;151844;-49
2021/11/19 02:30:33;;;;;;;;;;;;;;;19.72;56.28;102787.72;7282376;19;154107;-48
2021/11/19 02:33:01;;;;;;;;;;;;;;;19.73;56.35;102782.97;7282929;19;153897;-49
2021/11/19 02:35:31;;;;;;;;;;;;;;;19.74;55.97;102779.06;7291318;19;151831;-49
2021/11/19 02:38:01;;;;;;;;;;;;;;;19.74;56.37;102790.28;7296336;19;153179;-49
2021/11/19 02:40:29;;;;;;;;;;;;;;;19.73;56.34;102783.81;7290757;19;152191;-49
2021/11/19 02:43:00;;;;;;;;;;;;;;;19.72;56.34;102776.50;7290404;19;152664;-49
2021/11/19 02:45:32;;;;;;;;;;;;;;;19.74;55.96;102779.06;7289430;19;154027;-49
2021/11/19 02:47:59;;;;;;;;;;;;;;;19.72;56.39;102770.06;7290360;19;151806;-48
2021/11/19 02:50:27;;;;;;;;;;;;;;;19.71;56.12;102774.84;7289003;19;153282;-49
2021/11/19 02:52:55;;;;;;;;;;;;;;;19.69;56.51;102777.03;7288767;19;154448;-49
2021/11/19 02:55:24;;;;;;;;;;;;;;;19.71;56.10;102777.66;7290570;19;151718;-48
2021/11/19 02:57:51;;;;;;;;;;;;;;;19.73;56.14;102772.59;7289748;19;152708;-49
2021/11/19 03:00:23;;;;;;;;;;;;;;;19.69;56.62;102776.19;7296358;19;154863;-49
2021/11/19 03:02:50;;;;;;;;;;;;;;;19.68;56.46;102764.13;7287008;19;152907;-50
2021/11/19 03:05:18;;;;;;;;;;;;;;;19.67;56.62;102759.59;7288932;19;153329;-50
2021/11/19 03:07:45;;;;;;;;;;;;;;;19.66;56.51;102771.97;7290241;19;151693;-49
2021/11/19 03:10:18;;;;;;;;;;;;;;;19.65;56.45;102770.25;7286264;19;153141;-49
2021/11/19 03:12:45;;;;;;;;;;;;;;;19.66;56.50;102774.75;7286799;19;154092;-49
2021/11/19 03:15:15;;;;;;;;;;;;;;;19.67;56.46;102775.63;7290424;19;152251;-49
2021/11/19 03:17:42;;;;;;;;;;;;;;;19.68;56.51;102778.13;7288036;19;152458;-49
2021/11/19 03:20:09;;;;;;;;;;;;;;;19.66;56.36;102773.91;7288048;19;152555;-49
2021/11/19 03:22:36;;;;;;;;;;;;;;;19.66;56.77;102771.09;7296290;19;151922;-49
2021/11/19 03:25:05;;;;;;;;;;;;;;;19.66;56.51;102776.72;7287993;19;153218;-50
2021/11/19 03:27:31;;;;;;;;;;;;;;;19.62;56.96;102764.31;7288488;19;151730;-49
2021/11/19 03:29:58;;;;;;;;;;;;;;;19.64;56.94;102764.88;7288650;19;152978;-49
2021/11/19 03:32:26;;;;;;;;;;;;;;;19.67;56.74;102772.81;7285790;19;154475;-50
2021/11/19 03:34:55;;;;;;;;;;;;;;;19.65;57.04;102769.41;7289155;19;152001;-48
2021/11/19 03:37:31;;;;;;;;;;;;;;;19.62;57.02;102770.78;7289013;19;152119;-49
2021/11/19 03:40:04;;;;;;;;;;;;;;;19.61;56.81;102763.47;7287704;19;152704;-48
2021/11/19 03:42:35;;;;;;;;;;;;;;;19.61;57.07;102760.66;7295907;19;151993;-49
2021/11/19 03:45:04;;;;;;;;;;;;;;;19.60;57.19;102767.38;7286471;19;152178;-50
2021/11/19 03:47:32;;;;;;;;;;;;;;;19.61;57.03;102766.28;7288011;19;151736;-49
2021/11/19 03:50:01;;;;;;;;;;;;;;;19.62;57.31;102767.97;7287987;19;152965;-49
2021/11/19 03:52:33;;;;;;;;;;;;;;;19.62;57.11;102764.31;7287287;19;154253;-50
2021/11/19 03:55:08;;;;;;;;;;;;;;;19.60;57.25;102758.09;7288406;19;151993;-49
2021/11/19 03:57:35;;;;;;;;;;;;;;;19.60;57.03;102767.38;7288230;19;152674;-49
2021/11/19 04:00:05;;;;;;;;;;;;;;;19.62;57.01;102770.78;7287290;19;154038;-49
2021/11/19 04:02:32;;;;;;;;;;;;;;;19.58;57.45;102763.97;7285265;19;151615;-49
2021/11/19 04:05:02;;;;;;;;;;;;;;;19.60;57.18;102760.91;7294940;19;153478;-48
2021/11/19 04:07:29;;;;;;;;;;;;;;;19.59;56.93;102760.06;7286829;19;151786;-49
2021/11/19 04:09:55;;;;;;;;;;;;;;;19.56;57.39;102763.38;7287584;19;152807;-50
2021/11/19 04:12:23;;;;;;;;;;;;;;;19.57;57.02;102762.28;7287692;19;153205;-49
2021/11/19 04:14:50;;;;;;;;;;;;;;;19.59;56.86;102767.63;7288032;19;151824;-49
2021/11/19 04:17:18;;;;;;;;;;;;;;;19.58;57.12;102757.53;7287930;19;152627;-49
2021/11/19 04:19:46;;;;;;;;;;;;;;;19.57;57.29;102764.25;7286790;19;154056;-49
2021/11/19 04:22:14;;;;;;;;;;;;;;;19.55;57.47;102758.88;7288538;19;151612;-49
2021/11/19 04:24:43;;;;;;;;;;;;;;;19.55;57.15;102761.69;7288099;19;152364;-49
2021/11/19 04:27:10;;;;;;;;;;;;;;;19.55;57.27;102764.47;7293884;19;153849;-49
2021/11/19 04:29:37;;;;;;;;;;;;;;;19.55;57.52;102758.88;7287443;19;153598;-49
2021/11/19 04:32:05;;;;;;;;;;;;;;;19.53;57.56;102764.72;7285943;19;153988;-49
2021/11/19 04:34:32;;;;;;;;;;;;;;;19.53;57.38;102753.53;7287411;19;151707;-49
2021/11/19 04:36:58;;;;;;;;;;;;;;;19.51;57.49;102764.16;7287810;19;152906;-49
2021/11/19 04:39:25;;;;;;;;;;;;;;;19.49;57.65;102762.69;7286825;19;153254;-49
2021/11/19 04:41:52;;;;;;;;;;;;;;;19.47;57.99;102754.56;7287313;19;151845;-49
2021/11/19 04:44:20;;;;;;;;;;;;;;;19.46;58.33;102754.81;7288000;19;152893;-49
2021/11/19 04:46:47;;;;;;;;;;;;;;;19.45;58.52;102755.91;7286148;19;153263;-49
2021/11/19 04:49:14;;;;;;;;;;;;;;;19.46;58.03;102755.66;7294294;19;151804;-50
2021/11/19 04:51:42;;;;;;;;;;;;;;;19.45;58.09;102762.38;7283255;19;154159;-48
2021/11/19 04:54:10;;;;;;;;;;;;;;;19.43;58.49;102764.59;7285352;19;151579;-48
2021/11/19 04:56:38;;;;;;;;;;;;;;;19.44;58.13;102762.66;7283020;19;153063;-49
2021/11/19 04:59:05;;;;;;;;;;;;;;;19.44;58.59;102759.84;7285290;19;154102;-48
2021/11/19 05:01:34;;;;;;;;;;;;;;;19.43;58.40;102759.00;7285942;19;151848;-50
2021/11/19 05:04:02;;;;;;;;;;;;;;;19.42;58.49;102754.47;7286417;19;152467;-49
2021/11/19 05:06:29;;;;;;;;;;;;;;;19.41;58.74;102761.16;7286127;19;153352;-49
2021/11/19 05:08:58;;;;;;;;;;;;;;;19.40;58.39;102758.59;7285778;19;151979;-49
2021/11/19 05:11:30;;;;;;;;;;;;;;;19.40;58.86;102764.22;7291648;19;153320;-49
2021/11/19 05:13:59;;;;;;;;;;;;;;;19.41;58.85;102757.50;7286484;19;152024;-49
2021/11/19 05:16:26;;;;;;;;;;;;;;;19.39;58.71;102763.38;7286176;19;153354;-49
2021/11/19 05:18:53;;;;;;;;;;;;;;;19.40;58.67;102767.00;7285414;19;153522;-49
2021/11/19 05:21:22;;;;;;;;;;;;;;;19.41;58.66;102768.72;7285893;19;152205;-49
2021/11/19 05:23:49;;;;;;;;;;;;;;;19.41;58.68;102758.34;7286572;19;152822;-49
2021/11/19 05:26:17;;;;;;;;;;;;;;;19.39;58.50;102756.94;7285230;19;153204;-48
2021/11/19 05:28:44;;;;;;;;;;;;;;;19.37;58.49;102765.59;7286535;19;152773;-49
2021/11/19 05:31:12;;;;;;;;;;;;;;;19.37;58.42;102771.19;7283913;19;151675;-49
2021/11/19 05:33:39;;;;;;;;;;;;;;;19.33;59.02;102761.59;7292008;19;153811;-48
2021/11/19 05:36:06;;;;;;;;;;;;;;;19.36;58.90;102774.25;7286212;19;153289;-49
2021/11/19 05:38:37;;;;;;;;;;;;;;;19.35;58.68;102769.75;7284257;19;152217;-49
2021/11/19 05:41:06;;;;;;;;;;;;;;;19.34;59.03;102774.50;7285524;19;151947;-49
2021/11/19 05:43:34;;;;;;;;;;;;;;;19.33;58.77;102778.41;7285768;19;152622;-49
2021/11/19 05:46:01;;;;;;;;;;;;;;;19.33;59.20;102771.97;7283092;19;152221;-50
2021/11/19 05:48:28;;;;;;;;;;;;;;;19.39;59.11;102773.75;7284900;19;151505;-48
2021/11/19 05:50:55;;;;;;;;;;;;;;;19.40;58.95;102776.28;7284865;19;153101;-49
2021/11/19 05:53:26;;;;;;;;;;;;;;;19.42;59.72;102778.84;7291383;19;154004;-50
2021/11/19 05:55:52;;;;;;;;;;;;;;;19.45;59.53;102782.00;7285440;19;152577;-49
2021/11/19 05:58:20;;;;;;;;;;;;;;;19.48;59.63;102778.69;7283338;19;153992;-49
2021/11/19 06:00:52;;;;;;;;;;;;;;;19.50;60.28;102782.06;7285585;19;151796;-48
2021/11/19 06:03:19;;;;;;;;;;;;;;;19.54;60.44;102774.84;7284257;19;153398;-49
2021/11/19 06:05:46;;;;;;;;;;;;;;;19.58;60.79;102785.56;7284038;19;153228;-49
2021/11/19 06:08:13;;;;;;;;;;;;;;;19.62;61.15;102789.56;7287716;19;152229;-50
2021/11/19 06:10:41;;;;;;;;;;;;;;;19.68;61.66;102792.16;7290215;19;152510;-49
2021/11/19 06:13:09;;;;;;;;;;;;;;;19.73;61.50;102802.59;7289950;19;153311;-49
2021/11/19 06:15:38;;;;;;;;;;;;;;;19.76;61.66;102788.91;7299334;19;151979;-48
2021/11/19 06:18:10;;;;;;;;;;;;;;;19.83;61.05;102800.81;7288658;19;153948;-50
2021/11/19 06:20:48;;;;;;;;;;;;;;;19.89;61.18;102801.75;7291877;19;151907;-49
2021/11/19 06:23:17;;;;;;;;;;;;;;;19.93;60.82;102803.75;7289505;19;152737;-50
2021/11/19 06:25:44;;;;;;;;;;;;;;;19.99;60.79;102805.50;7289688;19;153995;-49
2021/11/19 06:28:22;;;;;;;;;;;;;;;20.05;60.38;102814.84;7290175;19;151871;-49
2021/11/19 06:30:49;;;;;;;;;;;;;;;20.11;60.46;102810.16;7290065;19;152324;-49
2021/11/19 06:33:16;;;;;;;;;;;;;;;20.14;60.50;102816.09;7289836;19;154045;-48
2021/11/19 06:35:42;;;;;;;;;;;;;;;20.21;60.43;102819.56;7291064;19;151561;-49
2021/11/19 06:38:09;;;;;;;;;;;;;;;20.26;60.14;102816.00;7296414;19;151686;-49
2021/11/19 06:40:36;;;;;;;;;;;;;;;20.31;60.21;102813.25;7290636;19;151615;-49
2021/11/19 06:43:04;;;;;;;;;;;;;;;20.36;60.05;102818.94;7290358;19;152654;-49
2021/11/19 06:45:31;;;;;;;;;;;;;;;20.41;59.82;102821.81;7290040;19;153366;-49
2021/11/19 06:47:59;;;;;;;;;;;;;;;20.47;59.42;102822.72;7289766;19;151498;-49
2021/11/19 06:50:27;;;;;;;;;;;;;;;20.51;59.57;102824.75;7289752;19;151777;-49
2021/11/19 06:52:54;;;;;;;;;;;;;;;20.55;59.47;102827.88;7288870;19;152354;-49
2021/11/19 06:55:21;;;;;;;;;;;;;;;20.61;59.45;102833.31;7290328;19;151656;-49
2021/11/19 06:57:48;;;;;;;;;;;;;;;20.65;59.01;102831.66;7288626;19;152663;-49
2021/11/19 07:00:18;;;;;;;;;;;;;;;20.72;59.33;102840.72;7296608;19;153803;-49
2021/11/19 07:02:45;;;;;;;;;;;;;;;20.75;59.29;102847.78;7287477;19;153747;-49
2021/11/19 07:05:12;;;;;;;;;;;;;;;20.80;59.06;102847.84;7288997;19;152534;-50
2021/11/19 07:07:40;;;;;;;;;;;;;;;20.83;59.29;102841.69;7289996;19;152243;-49
2021/11/19 07:10:07;;;;;;;;;;;;;;;20.91;58.85;102845.97;7290140;19;152570;-49
2021/11/19 07:12:34;;;;;;;;;;;;;;;20.95;58.72;102841.50;7286371;19;153154;-49
2021/11/19 07:15:03;;;;;;;;;;;;;;;20.99;58.37;102842.69;7289718;19;151796;-49
2021/11/19 07:17:29;;;;;;;;;;;;;;;21.04;58.29;102845.53;7288878;19;153332;-49
2021/11/19 07:19:56;;;;;;;;;;;;;;;21.08;58.37;102841.06;7285857;19;152328;-49
2021/11/19 07:22:23;;;;;;;;;;;;;;;21.12;58.28;102845.91;7297100;19;151623;-49
2021/11/19 07:24:52;;;;;;;;;;;;;;;21.16;58.42;102849.94;7289056;19;153669;-49
2021/11/19 07:27:21;;;;;;;;;;;;;;;21.23;57.79;102852.50;7288974;19;152084;-49
2021/11/19 07:29:47;;;;;;;;;;;;;;;21.25;57.99;102858.72;7289052;19;153108;-49
2021/11/19 07:32:14;;;;;;;;;;;;;;;21.30;57.54;102855.97;7284069;19;153896;-49
2021/11/19 07:34:41;;;;;;;;;;;;;;;21.34;57.41;102856.28;7289014;19;152048;-49
2021/11/19 07:37:08;;;;;;;;;;;;;;;21.36;57.07;102860.50;7289374;19;152950;-49
2021/11/19 07:39:35;;;;;;;;;;;;;;;21.40;57.35;102866.44;7288225;19;153231;-50
2021/11/19 07:42:01;;;;;;;;;;;;;;;21.41;56.87;102859.69;7289579;19;151873;-50
2021/11/19 07:44:28;;;;;;;;;;;;;;;21.44;57.12;102868.44;7294475;19;152479;-49
2021/11/19 07:46:55;;;;;;;;;;;;;;;21.47;56.46;102861.44;7288505;19;152047;-49
2021/11/19 07:49:22;;;;;;;;;;;;;;;21.49;56.32;102876.94;7289438;19;152587;-50
2021/11/19 07:51:50;;;;;;;;;;;;;;;21.51;56.30;102873.84;7286547;19;153264;-50
2021/11/19 07:54:17;;;;;;;;;;;;;;;21.52;56.62;102879.22;7288702;19;151939;-49
2021/11/19 07:56:45;;;;;;;;;;;;;;;21.54;56.19;102873.31;7288626;19;151971;-50
2021/11/19 07:59:17;;;;;;;;;;;;;;;21.55;56.15;102878.69;7285199;19;153836;-49
2021/11/19 08:01:44;;;;;;;;;;;;;;;21.55;56.35;102875.88;7287268;19;151545;-49
2021/11/19 08:04:11;;;;;;;;;;;;;;;21.57;56.45;102881.22;7294319;19;153563;-50
2021/11/19 08:06:39;;;;;;;;;;;;;;;21.60;56.62;102878.72;7288644;19;151854;-49
2021/11/19 08:09:06;;;;;;;;;;;;;;;21.60;56.43;102881.53;7288047;19;152598;-50
2021/11/19 08:11:33;;;;;;;;;;;;;;;21.60;56.19;102884.34;7285686;19;152076;-50
2021/11/19 08:14:00;;;;;;;;;;;;;;;21.61;56.47;102882.38;7288486;19;151876;-49
2021/11/19 08:16:27;;;;;;;;;;;;;;;21.63;56.25;102888.56;7288151;19;153132;-50
2021/11/19 08:18:58;;;;;;;;;;;;;;;21.62;55.95;102887.72;7286231;19;153998;-50
2021/11/19 08:21:28;;;;;;;;;;;;;;;21.61;56.04;102883.25;7288290;19;151890;-49
2021/11/19 08:24:05;;;;;;;;;;;;;;;21.60;55.87;102887.16;7286873;19;151825;-49
2021/11/19 08:26:37;;;;;;;;;;;;;;;21.60;55.88;102895.59;7294494;19;154258;-50
2021/11/19 08:29:06;;;;;;;;;;;;;;;21.60;55.75;102895.59;7287315;19;153290;-49
2021/11/19 08:31:33;;;;;;;;;;;;;;;21.62;56.02;102895.34;7283848;19;153232;-49
2021/11/19 08:34:00;;;;;;;;;;;;;;;21.62;56.23;102893.34;7284802;19;151579;-49
2021/11/19 08:36:28;;;;;;;;;;;;;;;21.61;55.88;102896.47;7287752;19;153656;-50
2021/11/19 08:38:56;;;;;;;;;;;;;;;21.58;56.04;102897.81;7285139;19;152357;-50
2021/11/19 08:41:23;;;;;;;;;;;;;;;21.60;55.72;102900.38;7287524;19;151719;-49
2021/11/19 08:43:52;;;;;;;;;;;;;;;21.60;55.85;102912.47;7286697;19;153097;-49
2021/11/19 08:46:21;;;;;;;;;;;;;;;21.60;56.07;102903.19;7286385;19;153304;-50
2021/11/19 08:48:49;;;;;;;;;;;;;;;21.56;55.87;102905.69;7293170;19;151771;-49
2021/11/19 08:51:19;;;;;;;;;;;;;;;21.56;55.05;102902.88;7284839;19;152269;-49
2021/11/19 08:53:50;;;;;;;;;;;;;;;21.55;55.25;102906.81;7286351;19;151544;-49
2021/11/19 08:56:23;;;;;;;;;;;;;;;21.56;55.52;102907.66;7287397;19;152655;-49
2021/11/19 08:58:49;;;;;;;;;;;;;;;21.57;55.50;102906.56;7285149;19;153926;-50
2021/11/19 09:01:17;;;;;;;;;;;;;;;21.57;55.61;102903.75;7285965;19;151973;-49
2021/11/19 09:03:44;;;;;;;;;;;;;;;21.58;55.44;102911.03;7287086;19;154634;-50
2021/11/19 09:06:14;;;;;;;;;;;;;;;21.57;55.95;102907.41;7285731;19;153277;-50
2021/11/19 09:08:42;;;;;;;;;;;;;;;21.58;56.12;102911.88;7285824;19;151616;-49
2021/11/19 09:11:10;;;;;;;;;;;;;;;21.60;56.78;102918.09;7292382;19;152004;-50
2021/11/19 09:13:37;;;;;;;;;;;;;;;21.62;57.00;102917.84;7282379;19;151960;-50
2021/11/19 09:16:06;;;;;;;;;;;;;;;21.62;55.93;102918.66;7284801;19;152838;-48
2021/11/19 09:18:36;;;;;;;;;;;;;;;21.61;55.28;102928.25;7283922;19;153821;-48
2021/11/19 09:21:06;;;;;;;;;;;;;;;21.62;54.86;102918.66;7285981;19;151882;-48
2021/11/19 09:23:35;;;;;;;;;;;;;;;21.65;54.48;102922.94;7285733;19;153234;-48
2021/11/19 09:26:07;;;;;;;;;;;;;;;21.64;54.03;102921.22;7285358;19;153196;-48
2021/11/19 09:28:36;;;;;;;;;;;;;;;21.64;53.97;102929.66;7282304;19;151659;-49
2021/11/19 09:31:05;;;;;;;;;;;;;;;21.62;53.26;102932.72;7284197;19;152588;-49
2021/11/19 09:33:33;;;;;;;;;;;;;;;21.63;53.08;102922.34;7288458;19;153433;-49
2021/11/19 09:36:00;;;;;;;;;;;;;;;21.62;53.38;102932.72;7285980;19;152620;-48
2021/11/19 09:38:27;;;;;;;;;;;;;;;21.61;53.19;102928.25;7283291;19;153141;-49
2021/11/19 09:41:13;;;;;;;;;;;;;;;21.60;52.76;102937.78;7282695;19;151655;-48
2021/11/19 09:43:43;;;;;;;;;;;;;;;21.61;52.88;102938.66;7287649;19;152902;-49
2021/11/19 09:46:22;;;;;;;;;;;;;;;21.60;52.93;102934.97;7290869;19;154154;-49
2021/11/19 09:49:06;;;;;;;;;;;;;;;21.58;52.55;102937.19;7291654;19;151929;-49
2021/11/19 09:52:05;;;;;;;;;;;;;;;21.59;52.75;102932.44;7291096;19;153623;-48
2021/11/19 09:54:32;;;;;;;;;;;;;;;21.56;52.30;102931.00;7287750;19;154091;-48
2021/11/19 09:57:17;;;;;;;;;;;;;;;21.58;52.58;102936.34;7298669;19;151698;-49
2021/11/19 09:59:49;;;;;;;;;;;;;;;21.56;52.22;102933.81;7290512;19;153226;-48
2021/11/19 10:02:40;;;;;;;;;;;;;;;21.55;52.39;102939.72;7288639;19;152785;-49
2021/11/19 10:05:25;;;;;;;;;;;;;;;21.53;52.02;102947.59;7291154;19;153360;-48
2021/11/19 10:08:07;;;;;;;;;;;;;;;21.54;52.05;102946.44;7289847;19;153398;-48
2021/11/19 10:10:33;;;;;;;;;;;;;;;21.53;51.80;102933.53;7291105;19;151932;-48
2021/11/19 10:13:06;;;;;;;;;;;;;;;21.52;52.17;102938.28;7289932;19;152665;-48
2021/11/19 10:15:35;;;;;;;;;;;;;;;21.47;51.29;102943.00;7290230;19;153236;-49
2021/11/19 10:18:07;;;;;;;;;;;;;;;21.25;48.75;102934.63;7298411;19;151860;-49
2021/11/19 10:20:36;;;;;;;;;;;;;;;21.11;48.37;102934.19;7290421;19;153323;-48
2021/11/19 10:23:15;;;;;;;;;;;;;;;21.09;48.17;102935.53;7291094;19;151558;-48
2021/11/19 10:25:49;;;;;;;;;;;;;;;21.01;47.59;102938.81;7290785;19;152498;-48
2021/11/19 10:28:38;;;;;;;;;;;;;;;20.88;47.51;102931.66;7288809;19;153891;-49
2021/11/19 10:31:10;;;;;;;;;;;;;;;20.93;50.26;102931.72;7288545;19;151750;-48
2021/11/19 10:33:43;;;;;;;;;;;;;;;20.99;50.37;102932.59;7288237;19;152339;-48
2021/11/19 10:36:24;;;;;;;;;;;;;;;21.01;50.19;102925.63;7260515;19;152227;-49
2021/11/19 10:38:54;;;;;;;;;;;;;;;21.04;50.39;102927.03;7285483;19;151993;-49
2021/11/19 10:41:47;;;;;;;;;;;;;;;21.08;50.43;102920.63;7295113;19;152624;-49
2021/11/19 10:44:13;;;;;;;;;;;;;;;21.10;50.58;102923.19;7288041;19;151906;-49
2021/11/19 10:46:56;;;;;;;;;;;;;;;21.09;50.68;102919.53;7287737;19;152769;-51
2021/11/19 10:49:32;;;;;;;;;;;;;;;21.09;50.80;102921.47;7287355;19;153202;-48
2021/11/19 10:52:17;;;;;;;;;;;;;;;21.10;50.69;102917.56;7287307;19;152151;-49
2021/11/19 10:54:44;;;;;;;;;;;;;;;21.09;50.69;102916.72;7288443;19;153065;-48
2021/11/19 10:57:16;;;;;;;;;;;;;;;21.08;50.85;102912.19;7287870;19;153386;-48
2021/11/19 11:00:04;;;;;;;;;;;;;;;21.06;50.91;102914.44;7288806;19;151811;-48
2021/11/19 11:02:37;;;;;;;;;;;;;;;21.07;51.09;102916.16;7286497;19;152624;-48
2021/11/19 11:05:17;;;;;;;;;;;;;;;21.07;50.83;102913.34;7292973;19;154141;-48
2021/11/19 11:07:59;;;;;;;;;;;;;;;21.04;51.11;102911.03;7288221;19;153609;-49
2021/11/19 11:10:32;;;;;;;;;;;;;;;21.02;51.19;102913.28;7287624;19;154116;-48
2021/11/19 11:12:58;;;;;;;;;;;;;;;21.04;51.03;102904.56;7286653;19;152002;-49
2021/11/19 11:15:25;;;;;;;;;;;;;;;21.04;51.33;102907.38;7288623;19;152887;-49
2021/11/19 11:18:10;;;;;;;;;;;;;;;21.03;50.74;102900.91;7287080;19;153078;-49
2021/11/19 11:20:53;;;;;;;;;;;;;;;21.02;50.85;102902.03;7289029;19;151910;-48
2021/11/19 11:23:20;;;;;;;;;;;;;;;21.00;51.06;102895.81;7287926;19;152842;-48
2021/11/19 11:25:56;;;;;;;;;;;;;;;21.00;51.05;102894.97;7287103;19;153288;-48
2021/11/19 11:28:34;;;;;;;;;;;;;;;20.98;51.01;102894.41;7293176;19;151841;-48
2021/11/19 11:31:14;;;;;;;;;;;;;;;20.97;50.93;102890.72;7284264;19;153175;-48
2021/11/19 11:33:56;;;;;;;;;;;;;;;20.95;50.86;102887.31;7285533;19;152443;-47
2021/11/19 11:36:30;;;;;;;;;;;;;;;20.92;50.89;102887.88;7283935;19;152034;-48
2021/11/19 11:39:02;;;;;;;;;;;;;;;20.90;50.88;102881.66;7283342;19;153245;-48
2021/11/19 11:41:34;;;;;;;;;;;;;;;20.93;50.96;102878.34;7287311;19;152028;-48
2021/11/19 11:44:05;;;;;;;;;;;;;;;20.93;50.81;102871.84;7287025;19;152210;-50
2021/11/19 11:46:34;;;;;;;;;;;;;;;20.92;50.83;102881.38;7284372;19;153955;-49
2021/11/19 11:49:20;;;;;;;;;;;;;;;20.91;51.21;102872.09;7284566;19;152061;-49
2021/11/19 11:52:02;;;;;;;;;;;;;;;20.92;51.03;102872.97;7291869;19;151960;-49
2021/11/19 11:54:35;;;;;;;;;;;;;;;20.91;50.83;102874.91;7283588;19;151842;-49
2021/11/19 11:57:17;;;;;;;;;;;;;;;20.92;51.20;102873.81;7286055;19;153542;-48
2021/11/19 12:00:02;;;;;;;;;;;;;;;20.90;50.81;102870.41;7285627;19;153941;-50
2021/11/19 12:02:29;;;;;;;;;;;;;;;20.90;50.69;102872.38;7283539;19;152320;-48
2021/11/19 12:05:11;;;;;;;;;;;;;;;20.88;50.91;102869.00;7287134;19;153576;-48
2021/11/19 12:07:41;;;;;;;;;;;;;;;20.85;50.88;102865.56;7281516;19;154126;-49
2021/11/19 12:10:31;;;;;;;;;;;;;;;20.85;51.15;102874.00;7285705;19;152330;-48
2021/11/19 12:13:10;;;;;;;;;;;;;;;20.84;50.73;102863.91;7285376;19;152618;-48
2021/11/19 12:16:01;;;;;;;;;;;;;;;20.83;50.96;102858.53;7292483;19;151885;-48
2021/11/19 12:18:40;;;;;;;;;;;;;;;20.81;50.78;102858.78;7285135;19;153756;-48
2021/11/19 12:21:07;;;;;;;;;;;;;;;20.80;51.13;102859.91;7283187;19;152311;-49
2021/11/19 12:24:03;;;;;;;;;;;;;;;20.79;51.01;102866.66;7286436;19;152384;-49
2021/11/19 12:26:35;;;;;;;;;;;;;;;20.78;51.25;102862.13;7284691;19;153277;-49
2021/11/19 12:29:13;;;;;;;;;;;;;;;20.77;51.33;102851.16;7284701;19;153895;-48
2021/11/19 12:31:50;;;;;;;;;;;;;;;20.75;51.37;102857.06;7286045;19;151956;-49
2021/11/19 12:34:27;;;;;;;;;;;;;;;20.75;51.25;102853.41;7283152;19;151852;-49
2021/11/19 12:37:00;;;;;;;;;;;;;;;20.74;50.96;102857.31;7290902;19;152026;-49
2021/11/19 12:39:27;;;;;;;;;;;;;;;20.74;50.94;102854.50;7281473;19;152501;-49
2021/11/19 12:41:57;;;;;;;;;;;;;;;20.73;51.17;102850.00;7285138;19;153675;-48
2021/11/19 12:44:30;;;;;;;;;;;;;;;20.70;50.87;102845.75;7286427;19;151798;-49